createdAt,value
2019-03-19T00:01:19.775Z,12.70
2019-03-19T00:03:50.507Z,12.60
2019-03-19T00:06:22.658Z,12.50
2019-03-19T00:08:53.310Z,12.50
2019-03-19T00:11:33.252Z,12.40
2019-03-19T00:14:04.769Z,12.40
2019-03-19T00:16:35.497Z,12.30
2019-03-19T00:19:06.571Z,12.40
2019-03-19T00:21:37.306Z,12.40
2019-03-19T00:24:08.045Z,12.40
2019-03-19T00:26:38.923Z,12.50
2019-03-19T00:29:09.622Z,12.60
2019-03-19T00:31:40.414Z,12.60
2019-03-19T00:34:11.095Z,12.70
2019-03-19T00:36:41.816Z,12.70
2019-03-19T00:39:12.531Z,12.60
2019-03-19T00:41:43.200Z,12.60
2019-03-19T00:44:13.929Z,12.60
2019-03-19T00:46:44.661Z,12.70
2019-03-19T00:49:15.285Z,12.80
2019-03-19T00:51:45.978Z,13.00
2019-03-19T00:54:16.848Z,13.00
2019-03-19T00:56:47.619Z,13.10
2019-03-19T00:59:18.577Z,13.10
2019-03-19T01:01:49.443Z,13.00
2019-03-19T01:04:20.093Z,13.00
2019-03-19T01:06:50.759Z,12.90
2019-03-19T01:09:21.425Z,13.10
2019-03-19T01:11:52.269Z,13.10
2019-03-19T01:14:36.061Z,13.10
2019-03-19T01:17:07.587Z,13.10
2019-03-19T01:19:38.183Z,13.10
2019-03-19T01:22:08.882Z,13.20
2019-03-19T01:24:39.590Z,13.00
2019-03-19T01:27:10.355Z,13.10
2019-03-19T01:29:41.061Z,13.10
2019-03-19T01:32:11.829Z,13.10
2019-03-19T01:34:42.446Z,13.10
2019-03-19T01:37:13.164Z,13.00
2019-03-19T01:39:43.822Z,13.10
2019-03-19T01:42:14.565Z,13.10
2019-03-19T01:44:45.195Z,13.20
2019-03-19T01:47:15.873Z,13.20
2019-03-19T01:49:46.573Z,13.10
2019-03-19T01:52:17.680Z,13.10
2019-03-19T01:54:48.299Z,13.10
2019-03-19T01:57:19.103Z,13.10
2019-03-19T01:59:49.794Z,13.00
2019-03-19T02:02:20.529Z,12.90
2019-03-19T02:04:51.366Z,13.00
2019-03-19T02:07:22.076Z,12.90
2019-03-19T02:09:52.770Z,12.70
2019-03-19T02:12:23.636Z,12.60
2019-03-19T02:14:54.293Z,12.50
2019-03-19T02:17:25.178Z,12.30
2019-03-19T02:19:56.118Z,12.40
2019-03-19T02:22:26.818Z,12.20
2019-03-19T02:24:57.648Z,12.30
2019-03-19T02:27:28.849Z,12.50
2019-03-19T02:29:59.478Z,12.50
2019-03-19T02:32:30.357Z,12.50
2019-03-19T02:35:01.091Z,12.40
2019-03-19T02:37:31.999Z,12.40
2019-03-19T02:40:02.964Z,12.40
2019-03-19T02:42:34.659Z,12.50
2019-03-19T02:45:05.919Z,12.50
2019-03-19T02:47:36.758Z,12.50
2019-03-19T02:50:08.770Z,12.50
2019-03-19T02:52:39.451Z,12.60
2019-03-19T02:55:10.289Z,12.70
2019-03-19T02:57:44.197Z,12.50
2019-03-19T03:00:15.032Z,12.50
2019-03-19T03:02:45.770Z,12.40
2019-03-19T03:05:17.669Z,12.20
2019-03-19T03:07:48.358Z,12.10
2019-03-19T03:10:19.196Z,12.10
2019-03-19T03:12:50.031Z,11.90
2019-03-19T03:15:20.771Z,11.90
2019-03-19T03:17:51.505Z,11.90
2019-03-19T03:20:25.966Z,12.00
2019-03-19T03:23:00.248Z,12.20
2019-03-19T03:25:30.869Z,12.20
2019-03-19T03:28:01.643Z,12.20
2019-03-19T03:30:32.261Z,12.30
2019-03-19T03:33:03.010Z,12.10
2019-03-19T03:35:33.792Z,12.10
2019-03-19T03:38:04.700Z,12.00
2019-03-19T03:40:35.361Z,12.00
2019-03-19T03:43:07.714Z,12.10
2019-03-19T03:45:38.376Z,12.30
2019-03-19T03:48:09.094Z,12.40
2019-03-19T03:50:39.862Z,12.20
2019-03-19T03:53:10.575Z,12.10
2019-03-19T03:55:41.195Z,12.10
2019-03-19T03:58:12.033Z,12.10
2019-03-19T04:00:42.680Z,12.10
2019-03-19T04:03:13.412Z,12.10
2019-03-19T04:05:44.056Z,12.10
2019-03-19T04:08:14.778Z,12.40
2019-03-19T04:10:45.559Z,12.50
2019-03-19T04:13:16.300Z,12.50
2019-03-19T04:15:47.973Z,12.40
2019-03-19T04:18:18.762Z,12.40
2019-03-19T04:20:49.507Z,12.40
2019-03-19T04:23:20.214Z,12.40
2019-03-19T04:25:55.718Z,12.40
2019-03-19T04:28:30.822Z,12.50
2019-03-19T04:31:02.748Z,12.50
2019-03-19T04:33:33.580Z,12.40
2019-03-19T04:36:04.295Z,12.40
2019-03-19T04:38:35.072Z,12.40
2019-03-19T04:41:05.883Z,12.40
2019-03-19T04:43:37.523Z,12.40
2019-03-19T04:46:08.321Z,12.60
2019-03-19T04:48:39.439Z,12.70
2019-03-19T04:51:10.127Z,12.60
2019-03-19T04:53:40.862Z,12.70
2019-03-19T04:56:11.507Z,12.60
2019-03-19T04:58:42.444Z,12.60
2019-03-19T05:01:13.194Z,12.50
2019-03-19T05:03:44.117Z,12.50
2019-03-19T05:06:14.953Z,12.50
2019-03-19T05:08:45.648Z,12.40
2019-03-19T05:11:16.701Z,12.30
2019-03-19T05:13:47.650Z,12.20
2019-03-19T05:16:18.293Z,12.10
2019-03-19T05:18:48.928Z,12.20
2019-03-19T05:21:19.688Z,12.10
2019-03-19T05:23:50.364Z,12.20
2019-03-19T05:26:21.024Z,12.10
2019-03-19T05:29:16.239Z,12.10
2019-03-19T05:31:49.655Z,12.00
2019-03-19T05:34:20.571Z,11.90
2019-03-19T05:36:51.199Z,12.10
2019-03-19T05:39:22.154Z,12.20
2019-03-19T05:41:52.900Z,12.20
2019-03-19T05:44:23.772Z,12.30
2019-03-19T05:46:55.740Z,12.20
2019-03-19T05:49:26.473Z,12.10
2019-03-19T05:51:57.264Z,11.90
2019-03-19T05:54:27.996Z,11.90
2019-03-19T05:56:58.678Z,11.90
2019-03-19T05:59:33.383Z,11.90
2019-03-19T06:02:04.389Z,11.80
2019-03-19T06:04:35.206Z,11.90
2019-03-19T06:07:05.994Z,11.90
2019-03-19T06:09:36.800Z,12.00
2019-03-19T06:12:07.451Z,12.10
2019-03-19T06:14:38.209Z,12.00
2019-03-19T06:17:08.869Z,11.90
2019-03-19T06:19:39.652Z,12.10
2019-03-19T06:22:10.404Z,12.10
2019-03-19T06:24:41.154Z,12.00
2019-03-19T06:27:11.951Z,12.00
2019-03-19T06:29:43.159Z,12.10
2019-03-19T06:32:21.496Z,10.80
2019-03-19T06:34:52.812Z,12.10
2019-03-19T06:37:23.526Z,12.10
2019-03-19T06:39:54.493Z,12.20
2019-03-19T06:42:25.316Z,12.30
2019-03-19T06:44:56.054Z,12.50
2019-03-19T06:47:26.789Z,12.60
2019-03-19T06:49:57.637Z,12.60
2019-03-19T06:52:28.305Z,12.50
2019-03-19T06:54:59.294Z,13.10
2019-03-19T06:57:38.912Z,12.40
2019-03-19T07:00:03.201Z,12.50
2019-03-19T07:02:34.002Z,12.60
2019-03-19T07:05:05.180Z,12.60
2019-03-19T07:07:35.973Z,12.60
2019-03-19T07:10:08.465Z,12.70
2019-03-19T07:12:39.323Z,12.80
2019-03-19T07:15:29.155Z,13.20
2019-03-19T07:18:02.956Z,13.20
2019-03-19T07:20:33.726Z,13.50
2019-03-19T07:23:04.669Z,14.40
2019-03-19T07:25:35.511Z,16.30
2019-03-19T07:28:06.920Z,16.90
2019-03-19T07:30:40.722Z,17.20
2019-03-19T07:33:11.145Z,18.60
2019-03-19T07:35:42.170Z,19.10
2019-03-19T07:38:13.003Z,19.40
2019-03-19T07:40:43.828Z,17.60
2019-03-19T07:43:14.564Z,16.20
2019-03-19T07:45:45.645Z,15.70
2019-03-19T07:48:54.766Z,15.30
2019-03-19T07:51:28.983Z,14.90
2019-03-19T07:53:59.848Z,15.40
2019-03-19T07:56:31.080Z,17.00
2019-03-19T07:59:01.875Z,17.80
2019-03-19T08:01:32.972Z,18.10
2019-03-19T08:04:05.029Z,19.30
2019-03-19T08:06:36.027Z,18.20
2019-03-19T08:09:08.239Z,18.70
2019-03-19T08:11:39.137Z,18.10
2019-03-19T08:14:09.894Z,19.80
2019-03-19T08:16:41.727Z,19.20
2019-03-19T08:19:24.474Z,22.20
2019-03-19T08:21:56.070Z,22.80
2019-03-19T08:24:26.722Z,21.90
2019-03-19T08:26:57.566Z,21.10
2019-03-19T08:29:28.530Z,21.30
2019-03-19T08:31:59.485Z,20.70
2019-03-19T08:34:30.258Z,19.60
2019-03-19T08:37:01.237Z,18.60
2019-03-19T08:39:31.911Z,17.90
2019-03-19T08:42:02.984Z,17.40
2019-03-19T08:44:33.701Z,17.30
2019-03-19T08:47:04.624Z,17.10
2019-03-19T08:49:35.324Z,17.10
2019-03-19T08:52:06.163Z,16.70
2019-03-19T08:54:36.850Z,16.30
2019-03-19T08:57:06.943Z,16.10
2019-03-19T08:59:37.720Z,15.90
2019-03-19T09:02:08.511Z,15.90
2019-03-19T09:04:39.195Z,15.70
2019-03-19T09:07:09.996Z,15.60
2019-03-19T09:09:41.873Z,15.50
2019-03-19T09:12:12.811Z,15.80
2019-03-19T09:14:43.611Z,16.00
2019-03-19T09:17:14.482Z,16.10
2019-03-19T09:19:45.353Z,16.20
2019-03-19T09:22:16.118Z,16.20
2019-03-19T09:24:46.887Z,16.00
2019-03-19T09:27:17.667Z,16.10
2019-03-19T09:29:48.395Z,16.10
2019-03-19T09:32:19.295Z,15.70
2019-03-19T09:34:49.970Z,15.70
2019-03-19T09:37:20.767Z,16.10
2019-03-19T09:39:51.747Z,16.10
2019-03-19T09:42:22.685Z,15.90
2019-03-19T09:44:58.476Z,16.00
2019-03-19T09:47:26.357Z,16.20
2019-03-19T09:49:57.233Z,16.00
2019-03-19T09:52:28.095Z,15.80
2019-03-19T09:54:58.987Z,15.80
2019-03-19T09:57:30.141Z,15.40
2019-03-19T10:00:00.938Z,15.30
2019-03-19T10:02:32.033Z,15.30
2019-03-19T10:05:04.561Z,15.70
2019-03-19T10:07:35.464Z,16.00
2019-03-19T10:10:06.740Z,16.20
2019-03-19T10:12:37.514Z,15.50
2019-03-19T10:15:08.751Z,15.50
2019-03-19T10:17:41.285Z,15.40
2019-03-19T10:20:13.634Z,15.50
2019-03-19T10:22:44.731Z,15.30
2019-03-19T10:25:39.174Z,16.70
2019-03-19T10:28:13.651Z,15.20
2019-03-19T10:30:44.520Z,14.10
2019-03-19T10:33:16.109Z,15.40
2019-03-19T10:35:47.264Z,15.50
2019-03-19T10:38:17.995Z,15.60
2019-03-19T10:40:48.678Z,15.50
2019-03-19T10:43:19.504Z,15.50
2019-03-19T10:45:50.160Z,15.40
2019-03-19T10:48:20.994Z,15.30
2019-03-19T10:50:52.210Z,15.20
2019-03-19T10:53:23.064Z,15.30
2019-03-19T10:55:54.108Z,15.50
2019-03-19T10:58:25.032Z,15.20
2019-03-19T11:00:56.165Z,15.30
2019-03-19T11:03:27.070Z,15.30
2019-03-19T11:05:57.902Z,15.40
2019-03-19T11:08:39.674Z,15.40
2019-03-19T11:11:10.966Z,15.30
2019-03-19T11:13:41.786Z,15.10
2019-03-19T11:16:12.784Z,15.20
2019-03-19T11:18:43.911Z,14.90
2019-03-19T11:21:14.796Z,15.20
2019-03-19T11:23:45.649Z,15.30
2019-03-19T11:26:16.762Z,15.40
2019-03-19T11:28:47.705Z,15.20
2019-03-19T11:31:18.540Z,15.40
2019-03-19T11:33:49.446Z,15.30
2019-03-19T11:36:20.494Z,15.90
2019-03-19T11:38:51.487Z,15.30
2019-03-19T11:41:22.425Z,15.30
2019-03-19T11:43:54.314Z,15.40
2019-03-19T11:46:25.522Z,15.50
2019-03-19T11:48:56.453Z,15.60
2019-03-19T11:51:27.309Z,15.50
2019-03-19T11:53:58.354Z,16.60
2019-03-19T11:56:29.285Z,15.70
2019-03-19T11:59:00.378Z,15.90
2019-03-19T12:01:31.030Z,16.00
2019-03-19T12:04:06.319Z,15.90
2019-03-19T12:06:37.019Z,16.20
2019-03-19T12:09:09.007Z,16.40
2019-03-19T12:11:43.695Z,16.00
2019-03-19T12:14:14.437Z,15.90
2019-03-19T12:16:45.344Z,15.50
2019-03-19T12:19:16.205Z,15.70
2019-03-19T12:21:46.860Z,15.70
2019-03-19T12:24:17.779Z,16.10
2019-03-19T12:26:48.518Z,16.10
2019-03-19T12:29:19.585Z,16.10
2019-03-19T12:31:50.939Z,14.20
2019-03-19T12:34:21.793Z,15.60
2019-03-19T12:36:52.834Z,15.80
2019-03-19T12:39:23.652Z,18.00
2019-03-19T12:41:54.472Z,20.80
2019-03-19T12:44:26.198Z,21.20
2019-03-19T12:46:56.871Z,20.50
2019-03-19T12:49:27.878Z,19.10
2019-03-19T12:52:13.554Z,18.10
2019-03-19T12:54:44.412Z,17.00
2019-03-19T12:57:15.313Z,16.80
2019-03-19T12:59:46.370Z,16.70
2019-03-19T13:02:17.205Z,16.50
2019-03-19T13:04:48.310Z,16.20
2019-03-19T13:07:19.202Z,15.40
2019-03-19T13:09:49.899Z,16.50
2019-03-19T13:12:20.828Z,15.90
2019-03-19T13:14:52.008Z,16.20
2019-03-19T13:17:23.772Z,16.50
2019-03-19T13:19:54.962Z,16.30
2019-03-19T13:22:26.035Z,15.80
2019-03-19T13:24:57.304Z,16.00
2019-03-19T13:27:28.002Z,16.20
2019-03-19T13:29:59.191Z,16.70
2019-03-19T13:32:30.839Z,17.70
2019-03-19T13:35:15.348Z,17.80
2019-03-19T13:37:46.817Z,17.70
2019-03-19T13:40:17.802Z,17.40
2019-03-19T13:42:48.513Z,17.00
2019-03-19T13:45:19.484Z,17.00
2019-03-19T13:47:50.352Z,17.00
2019-03-19T13:50:21.926Z,16.70
2019-03-19T13:52:52.827Z,16.50
2019-03-19T13:55:23.769Z,16.00
2019-03-19T13:57:54.576Z,16.00
2019-03-19T14:04:15.377Z,15.50
2019-03-19T14:06:46.104Z,15.80
2019-03-19T14:09:16.928Z,15.70
2019-03-19T14:11:47.699Z,16.30
2019-03-19T14:14:18.510Z,16.90
2019-03-19T14:16:49.446Z,17.20
2019-03-19T14:19:20.311Z,16.50
2019-03-19T14:21:51.086Z,16.20
2019-03-19T14:24:22.301Z,15.80
2019-03-19T14:26:52.993Z,15.80
2019-03-19T14:29:23.853Z,15.90
2019-03-19T14:31:54.569Z,15.70
2019-03-19T14:34:25.289Z,15.30
2019-03-19T14:36:56.283Z,15.20
2019-03-19T14:39:27.390Z,15.80
2019-03-19T14:42:19.577Z,15.70
2019-03-19T14:44:51.683Z,15.90
2019-03-19T14:47:22.612Z,15.90
2019-03-19T14:49:54.083Z,15.60
2019-03-19T14:52:24.863Z,15.80
2019-03-19T14:54:55.587Z,16.10
2019-03-19T14:57:27.067Z,16.40
2019-03-19T14:59:59.217Z,16.50
2019-03-19T15:02:30.884Z,16.30
2019-03-19T15:05:02.172Z,16.20
2019-03-19T15:07:36.964Z,16.10
2019-03-19T15:10:10.316Z,15.90
2019-03-19T15:12:41.753Z,15.70
2019-03-19T15:15:14.753Z,15.80
2019-03-19T15:17:46.088Z,16.20
2019-03-19T15:20:19.037Z,16.50
2019-03-19T15:22:50.772Z,16.70
2019-03-19T15:25:21.465Z,16.80
2019-03-19T15:27:53.365Z,16.20
2019-03-19T15:30:24.057Z,16.00
2019-03-19T15:32:55.045Z,16.30
2019-03-19T15:35:26.347Z,16.40
2019-03-19T15:37:57.068Z,15.90
2019-03-19T15:40:27.809Z,15.60
2019-03-19T15:43:09.644Z,15.60
2019-03-19T15:45:40.930Z,15.80
2019-03-19T15:48:12.105Z,15.90
2019-03-19T15:50:42.864Z,15.90
2019-03-19T15:53:13.550Z,15.40
2019-03-19T15:55:44.276Z,15.30
2019-03-19T15:58:15.197Z,15.70
2019-03-19T16:00:45.995Z,15.60
2019-03-19T16:03:16.757Z,15.40
2019-03-19T16:05:47.469Z,15.40
2019-03-19T16:08:26.604Z,15.50
2019-03-19T16:10:57.479Z,14.40
2019-03-19T16:13:28.332Z,15.50
2019-03-19T16:15:58.963Z,15.40
2019-03-19T16:18:29.604Z,15.60
2019-03-19T16:21:00.560Z,15.70
2019-03-19T16:23:31.367Z,15.70
2019-03-19T16:26:02.127Z,15.50
2019-03-19T16:28:34.595Z,15.60
2019-03-19T16:31:05.565Z,15.40
2019-03-19T16:33:36.552Z,15.30
2019-03-19T16:36:07.442Z,15.50
2019-03-19T16:38:38.518Z,15.30
2019-03-19T16:41:09.237Z,15.00
2019-03-19T16:43:40.022Z,14.40
2019-03-19T16:46:10.822Z,14.10
2019-03-19T16:48:41.687Z,14.00
2019-03-19T16:51:12.662Z,13.90
2019-03-19T16:53:43.344Z,14.00
2019-03-19T16:56:14.110Z,13.80
2019-03-19T16:58:44.839Z,13.70
2019-03-19T17:01:15.591Z,13.60
2019-03-19T17:03:46.401Z,13.50
2019-03-19T17:06:17.966Z,13.50
2019-03-19T17:08:49.166Z,13.10
2019-03-19T17:11:19.969Z,13.10
2019-03-19T17:13:50.904Z,13.30
2019-03-19T17:16:21.663Z,13.40
2019-03-19T17:18:52.627Z,13.60
2019-03-19T17:21:23.717Z,13.70
2019-03-19T17:23:54.524Z,13.70
2019-03-19T17:26:25.419Z,13.70
2019-03-19T17:28:56.224Z,12.60
2019-03-19T17:31:27.180Z,13.80
2019-03-19T17:33:57.974Z,13.90
2019-03-19T17:36:28.810Z,13.70
2019-03-19T17:38:59.735Z,13.70
2019-03-19T17:41:31.619Z,13.80
2019-03-19T17:44:07.436Z,13.80
2019-03-19T17:46:38.359Z,13.90
2019-03-19T17:49:09.413Z,13.70
2019-03-19T17:51:42.699Z,13.70
2019-03-19T17:54:13.650Z,13.80
2019-03-19T17:56:51.935Z,13.90
2019-03-19T17:59:23.946Z,14.10
2019-03-19T18:01:54.752Z,14.20
2019-03-19T18:04:26.797Z,13.90
2019-03-19T18:06:57.805Z,13.80
2019-03-19T18:09:32.655Z,13.80
2019-03-19T18:12:03.976Z,13.70
2019-03-19T18:14:46.784Z,13.70
2019-03-19T18:17:18.582Z,13.60
2019-03-19T18:19:49.704Z,13.60
2019-03-19T18:22:20.568Z,13.60
2019-03-19T18:24:51.845Z,13.60
2019-03-19T18:27:23.647Z,13.60
2019-03-19T18:29:55.628Z,13.80
2019-03-19T18:32:34.654Z,13.70
2019-03-19T18:34:58.960Z,13.80
2019-03-19T18:37:30.206Z,15.20
2019-03-19T18:40:01.300Z,13.80
2019-03-19T18:42:33.363Z,13.70
2019-03-19T18:45:05.849Z,13.70
2019-03-19T18:47:38.005Z,13.70
2019-03-19T18:50:10.944Z,13.60
2019-03-19T18:52:41.782Z,13.60
2019-03-19T18:55:12.822Z,13.70
2019-03-19T18:57:43.984Z,13.80
2019-03-19T19:00:16.202Z,13.80
2019-03-19T19:02:50.035Z,13.80
2019-03-19T19:05:20.806Z,13.80
2019-03-19T19:07:52.191Z,13.90
2019-03-19T19:10:23.570Z,13.80
2019-03-19T19:12:54.853Z,13.80
2019-03-19T19:15:25.787Z,13.80
2019-03-19T19:17:56.564Z,13.80
2019-03-19T19:20:27.594Z,13.80
2019-03-19T19:22:58.971Z,13.90
2019-03-19T19:25:30.081Z,13.80
2019-03-19T19:28:00.999Z,13.80
2019-03-19T19:30:33.753Z,13.80
2019-03-19T19:33:04.961Z,13.80
2019-03-19T19:35:41.177Z,13.80
2019-03-19T19:38:12.147Z,13.90
2019-03-19T19:40:43.264Z,13.90
2019-03-19T19:43:14.659Z,13.90
2019-03-19T19:45:45.920Z,13.90
2019-03-19T19:48:17.178Z,13.90
2019-03-19T19:50:48.881Z,13.80
2019-03-19T19:53:20.209Z,13.80
2019-03-19T19:55:51.120Z,13.80
2019-03-19T19:58:22.426Z,13.80
2019-03-19T20:01:01.331Z,13.90
2019-03-19T20:03:32.587Z,13.90
2019-03-19T20:06:03.971Z,14.00
2019-03-19T20:08:35.214Z,14.00
2019-03-19T20:11:07.139Z,14.00
2019-03-19T20:13:38.392Z,14.00
2019-03-19T20:16:09.400Z,14.00
2019-03-19T20:18:40.603Z,13.90
2019-03-19T20:21:12.617Z,13.90
2019-03-19T20:23:43.752Z,13.90
2019-03-19T20:26:14.779Z,13.80
2019-03-19T20:32:44.558Z,13.80
2019-03-19T20:35:16.092Z,13.80
2019-03-19T20:37:47.120Z,13.90
2019-03-19T20:40:19.104Z,13.90
2019-03-19T20:42:54.450Z,13.90
2019-03-19T20:45:25.689Z,13.90
2019-03-19T20:48:46.428Z,13.90
2019-03-19T20:51:18.231Z,13.90
2019-03-19T20:53:49.396Z,13.80
2019-03-19T20:56:20.646Z,13.70
2019-03-19T20:58:51.514Z,13.60
2019-03-19T21:01:22.261Z,13.60
2019-03-19T21:03:53.152Z,13.60
2019-03-19T21:06:24.152Z,13.60
2019-03-19T21:08:55.131Z,13.60
2019-03-19T21:11:29.177Z,13.70
2019-03-19T21:14:00.019Z,13.70
2019-03-19T21:16:30.789Z,13.80
2019-03-19T21:19:01.783Z,13.80
2019-03-19T21:21:32.508Z,13.80
2019-03-19T21:24:03.332Z,13.80
2019-03-19T21:26:34.223Z,13.80
2019-03-19T21:29:06.441Z,13.90
2019-03-19T21:31:37.436Z,13.90
2019-03-19T21:34:08.222Z,13.80
2019-03-19T21:36:39.003Z,13.70
2019-03-19T21:39:10.781Z,13.60
2019-03-19T21:41:43.141Z,13.50
2019-03-19T21:44:24.472Z,13.50
2019-03-19T21:47:04.293Z,13.50
2019-03-19T21:49:35.364Z,13.60
2019-03-19T21:52:07.372Z,13.50
2019-03-19T21:54:38.336Z,13.50
2019-03-19T21:57:09.014Z,13.50
2019-03-19T21:59:39.797Z,13.40
2019-03-19T22:02:10.687Z,13.50
2019-03-19T22:04:41.704Z,13.40
2019-03-19T22:07:12.576Z,13.20
2019-03-19T22:09:44.680Z,13.20
2019-03-19T22:12:17.473Z,13.20
2019-03-19T22:14:49.280Z,13.10
2019-03-19T22:17:20.238Z,13.10
2019-03-19T22:19:52.959Z,13.20
2019-03-19T22:22:25.044Z,13.10
2019-03-19T22:24:55.778Z,13.20
2019-03-19T22:27:27.701Z,13.20
2019-03-19T22:29:58.375Z,13.10
2019-03-19T22:32:30.792Z,13.00
2019-03-19T22:35:02.888Z,13.00
2019-03-19T22:37:34.266Z,13.00
2019-03-19T22:40:05.940Z,13.00
2019-03-19T22:42:36.729Z,12.90
2019-03-19T22:45:09.286Z,12.90
2019-03-19T22:47:40.035Z,12.90
2019-03-19T22:50:22.682Z,12.90
2019-03-19T22:52:55.562Z,12.80
2019-03-19T22:55:29.333Z,12.80
2019-03-19T22:57:59.445Z,12.70
2019-03-19T23:00:40.926Z,12.60
2019-03-19T23:03:15.740Z,12.60
2019-03-19T23:05:46.666Z,12.50
2019-03-19T23:08:17.502Z,12.50
2019-03-19T23:10:48.224Z,12.50
2019-03-19T23:13:19.077Z,12.50
2019-03-19T23:15:50.881Z,12.50
2019-03-19T23:18:21.566Z,11.30
2019-03-19T23:20:52.265Z,12.60
2019-03-19T23:23:23.049Z,12.70
2019-03-19T23:25:54.282Z,12.70
2019-03-19T23:28:24.977Z,12.70
2019-03-19T23:30:55.864Z,12.60
2019-03-19T23:33:26.744Z,12.60
2019-03-19T23:35:59.511Z,12.60
2019-03-19T23:38:32.756Z,12.50
2019-03-19T23:41:03.935Z,12.50
2019-03-19T23:43:34.722Z,12.50
2019-03-19T23:46:05.709Z,12.50
2019-03-19T23:48:36.402Z,12.60
2019-03-19T23:51:08.307Z,12.60
2019-03-19T23:53:39.940Z,12.70
2019-03-19T23:56:12.018Z,12.60
2019-03-19T23:58:43.264Z,12.60
